Time;durP1;ratioP1;P1;durP2;ratioP2;P2;SDS_P1;SDS_P2;PMS_P1;PMS_P2;Temp;Humidity;BMP_temperature;BMP_pressure;BME280_temperature;BME280_humidity;BME280_pressure;Samples;Min_cycle;Max_cycle;Signal;HPM_P1;HPM_P2
2023/10/07 00:01:02;;;;;;;10.30;4.87;;;;;;;13.48;89.41;99806.19;4211840;28;20224;-65
2023/10/07 00:03:29;;;;;;;10.10;4.60;;;;;;;13.56;88.55;99799.81;4202851;28;20482;-61
2023/10/07 00:06:02;;;;;;;12.97;4.60;;;;;;;13.51;88.93;99800.38;4209121;28;20283;-64
2023/10/07 00:08:29;;;;;;;10.13;4.73;;;;;;;13.50;88.96;99804.09;4218521;28;20235;-60
2023/10/07 00:10:59;;;;;;;10.37;4.70;;;;;;;13.44;88.79;99802.97;4209402;28;20384;-63
2023/10/07 00:13:30;;;;;;;7.53;4.20;;;;;;;13.50;88.71;99795.13;4221515;28;22741;-64
2023/10/07 00:15:59;;;;;;;13.23;4.40;;;;;;;13.55;87.86;99793.56;4215339;28;20236;-65
2023/10/07 00:18:27;;;;;;;8.47;4.40;;;;;;;13.44;89.04;99791.25;4212000;28;20228;-63
2023/10/07 00:20:56;;;;;;;13.37;4.80;;;;;;;13.45;88.40;99779.34;4208954;28;20308;-64
2023/10/07 00:23:27;;;;;;;12.30;4.20;;;;;;;13.55;87.49;99779.09;4212125;28;20238;-66
2023/10/07 00:25:57;;;;;;;10.93;4.37;;;;;;;13.43;88.29;99774.09;4213214;28;21687;-62
2023/10/07 00:31:12;;;;;;;11.07;4.20;;;;;;;13.53;87.76;99759.38;4207690;28;20232;-63
2023/10/07 00:39:09;;;;;;;9.60;3.97;;;;;;;13.60;86.99;99749.47;4214917;28;20231;-63
2023/10/07 00:41:39;;;;;;;9.20;3.80;;;;;;;13.61;87.24;99754.75;4212215;28;20228;-66
2023/10/07 00:44:17;;;;;;;9.53;3.63;;;;;;;13.66;86.47;99729.72;4204907;28;20229;-65
2023/10/07 00:49:40;;;;;;;9.00;4.20;;;;;;;13.63;86.65;99725.47;4214188;28;22354;-63
2023/10/07 00:52:29;;;;;;;11.20;3.83;;;;;;;13.59;86.71;99716.00;4212186;28;20292;-65
2023/10/07 00:55:00;;;;;;;8.87;3.40;;;;;;;13.64;86.13;99710.00;4199144;28;20255;-64
2023/10/07 00:57:35;;;;;;;11.03;3.87;;;;;;;13.69;85.81;99712.19;4232272;28;21601;-63
2023/10/07 01:02:51;;;;;;;8.80;3.40;;;;;;;13.74;85.76;99717.88;4213403;28;20680;-65
2023/10/07 01:05:27;;;;;;;9.83;3.70;;;;;;;13.69;86.31;99707.56;4212546;28;20670;-68
2023/10/07 01:07:55;;;;;;;11.87;4.37;;;;;;;13.62;87.71;99718.38;4210851;28;20308;-64
2023/10/07 01:10:27;;;;;;;10.57;4.30;;;;;;;13.46;89.71;99718.50;4210046;28;20239;-63
2023/10/07 01:13:01;;;;;;;12.23;4.60;;;;;;;13.23;92.46;99726.66;4212357;28;21681;-63
2023/10/07 01:15:29;;;;;;;11.20;4.60;;;;;;;13.05;94.60;99724.25;4206516;28;20294;-65
2023/10/07 01:18:03;;;;;;;10.70;4.50;;;;;;;12.88;95.80;99694.47;4210190;28;20240;-65
2023/10/07 01:20:58;;;;;;;15.60;5.07;;;;;;;12.65;99.08;99714.31;4218798;28;22806;-65
2023/10/07 01:23:32;;;;;;;10.03;4.83;;;;;;;12.46;100.00;99699.31;4208041;28;20232;-62
2023/10/07 01:26:14;;;;;;;13.47;5.27;;;;;;;12.45;100.00;99703.06;4215021;28;20338;-66
2023/10/07 01:28:44;;;;;;;13.57;5.30;;;;;;;12.38;100.00;99702.09;4207768;28;24994;-65
2023/10/07 01:31:13;;;;;;;13.67;5.63;;;;;;;12.32;100.00;99719.94;4210079;28;22171;-63
2023/10/07 01:33:41;;;;;;;12.50;6.23;;;;;;;12.30;100.00;99699.41;4212381;28;20232;-64
2023/10/07 01:38:40;;;;;;;9.43;5.03;;;;;;;12.29;100.00;99708.59;4210179;28;20241;-63
2023/10/07 01:41:20;;;;;;;13.33;5.70;;;;;;;12.25;100.00;99702.66;4211110;28;20224;-62
2023/10/07 01:44:00;;;;;;;12.27;5.50;;;;;;;12.25;100.00;99691.81;4213322;28;20302;-65
2023/10/07 01:46:30;;;;;;;13.03;6.00;;;;;;;12.25;100.00;99674.66;4212773;28;21830;-63
2023/10/07 01:49:11;;;;;;;11.83;5.73;;;;;;;12.24;100.00;99665.69;4206874;28;20254;-63
2023/10/07 01:51:44;;;;;;;13.17;5.93;;;;;;;12.25;100.00;99664.66;4212582;28;21515;-63
2023/10/07 01:54:14;;;;;;;15.60;4.90;;;;;;;12.27;100.00;99659.06;4208327;28;20240;-64
2023/10/07 01:56:40;;;;;;;11.80;5.40;;;;;;;12.26;100.00;99652.78;4213043;28;25040;-64
2023/10/07 02:01:43;;;;;;;12.87;4.70;;;;;;;12.34;100.00;99625.63;4213756;28;20274;-63
2023/10/07 02:04:24;;;;;;;12.03;5.07;;;;;;;12.34;100.00;99628.31;4214291;28;20232;-65
2023/10/07 02:06:51;;;;;;;12.67;5.27;;;;;;;12.32;100.00;99615.94;4220901;28;23015;-63
2023/10/07 02:09:40;;;;;;;13.27;4.77;;;;;;;12.31;100.00;99616.97;4224137;28;20236;-63
2023/10/07 02:12:11;;;;;;;10.33;5.00;;;;;;;12.33;100.00;99618.50;4207905;28;21655;-63
2023/10/07 02:14:38;;;;;;;10.33;4.90;;;;;;;12.36;100.00;99609.16;4213298;28;20240;-62
2023/10/07 02:17:08;;;;;;;14.27;5.53;;;;;;;12.41;100.00;99620.28;4205296;28;23541;-65
2023/10/07 02:19:39;;;;;;;12.67;5.00;;;;;;;12.44;99.46;99627.22;4208725;28;22108;-65
2023/10/07 02:22:27;;;;;;;9.73;4.10;;;;;;;12.51;98.00;99622.78;4210838;28;20387;-63
2023/10/07 02:25:04;;;;;;;12.90;4.77;;;;;;;12.55;97.80;99620.53;4214344;28;20719;-65
2023/10/07 02:27:41;;;;;;;9.67;4.17;;;;;;;12.60;96.68;99615.44;4205909;28;20232;-65
2023/10/07 02:30:19;;;;;;;9.83;4.43;;;;;;;12.65;96.38;99610.28;4224389;28;20264;-63
2023/10/07 02:32:47;;;;;;;14.53;5.07;;;;;;;12.71;95.64;99616.88;4211541;28;20251;-64
2023/10/07 02:35:19;;;;;;;11.20;4.80;;;;;;;12.66;96.01;99604.66;4216631;28;26147;-65
2023/10/07 02:37:49;;;;;;;11.23;4.70;;;;;;;12.68;95.72;99599.09;4211084;28;22921;-63
2023/10/07 02:40:19;;;;;;;9.97;4.03;;;;;;;12.71;94.97;99597.88;4207255;28;20461;-64
2023/10/07 02:42:46;;;;;;;12.47;4.33;;;;;;;12.70;95.16;99588.84;4213931;28;22681;-62
2023/10/07 02:47:53;;;;;;;10.93;4.20;;;;;;;12.76;93.71;99581.88;4204563;28;20686;-62
2023/10/07 02:50:20;;;;;;;10.73;4.30;;;;;;;12.77;93.57;99583.56;4202892;28;23002;-64
2023/10/07 02:52:47;;;;;;;10.30;4.23;;;;;;;12.82;92.33;99579.28;4209269;28;20233;-65
2023/10/07 02:57:49;;;;;;;11.30;4.20;;;;;;;12.81;92.29;99560.41;4212665;28;20294;-62
2023/10/07 03:00:17;;;;;;;10.23;4.13;;;;;;;12.83;91.66;99561.94;4212523;28;20256;-64
2023/10/07 03:03:08;;;;;;;12.90;4.83;;;;;;;12.87;91.07;99556.13;4214604;28;20228;-64
2023/10/07 03:05:45;;;;;;;13.37;4.60;;;;;;;12.86;91.40;99562.59;4213033;28;20244;-65
2023/10/07 03:08:21;;;;;;;8.57;3.90;;;;;;;12.85;90.78;99553.59;4206208;28;20243;-64
2023/10/07 03:11:03;;;;;;;10.20;4.53;;;;;;;12.88;90.66;99549.69;4211784;28;20239;-63
2023/10/07 03:13:30;;;;;;;7.37;3.70;;;;;;;12.94;89.63;99559.78;4210122;28;20308;-63
2023/10/07 03:16:45;;;;;;;8.17;3.30;;;;;;;12.94;89.16;99541.66;4211622;28;21082;-66
2023/10/07 03:18:54;;;;;;;9.87;4.00;;;;;;;12.93;89.06;99549.97;4213160;28;20263;-64
2023/10/07 03:21:22;;;;;;;9.37;3.70;;;;;;;12.97;88.84;99538.53;4225607;28;20905;-63
2023/10/07 03:23:48;;;;;;;12.03;3.63;;;;;;;12.98;88.56;99531.25;4210572;28;20243;-63
2023/10/07 03:26:19;;;;;;;10.67;3.53;;;;;;;13.02;88.04;99531.72;4202742;28;20228;-64
2023/10/07 03:28:53;;;;;;;14.30;3.80;;;;;;;13.03;87.70;99525.25;4209880;28;20572;-62
2023/10/07 03:31:28;;;;;;;10.00;3.80;;;;;;;13.07;87.53;99523.84;4211167;28;20246;-64
2023/10/07 03:33:58;;;;;;;7.30;3.33;;;;;;;13.12;86.67;99516.81;4214492;28;20303;-63
2023/10/07 03:36:31;;;;;;;9.67;3.50;;;;;;;13.18;86.44;99508.94;4206335;28;20444;-65
2023/10/07 03:39:22;;;;;;;13.80;3.37;;;;;;;13.19;86.12;99497.06;4209450;28;20952;-66
2023/10/07 03:41:59;;;;;;;10.70;3.37;;;;;;;13.30;85.05;99518.31;4212875;28;20949;-63
2023/10/07 03:44:27;;;;;;;7.97;3.47;;;;;;;13.28;85.18;99501.38;4207886;28;20235;-66
2023/10/07 03:46:56;;;;;;;8.67;3.17;;;;;;;13.34;84.63;99497.03;4208088;28;20267;-64
2023/10/07 03:49:33;;;;;;;5.63;3.10;;;;;;;13.44;83.56;99503.88;4210580;28;20309;-66
2023/10/07 03:52:07;;;;;;;15.37;3.70;;;;;;;13.50;83.56;99504.19;4211786;28;20228;-63
2023/10/07 03:54:40;;;;;;;8.57;3.33;;;;;;;13.51;83.73;99492.28;4210617;28;22967;-63
2023/10/07 03:57:08;;;;;;;8.83;3.00;;;;;;;13.57;83.50;99496.97;4208322;28;20239;-64
2023/10/07 03:59:34;;;;;;;8.93;3.63;;;;;;;13.53;84.21;99473.88;4209227;28;20303;-64
2023/10/07 04:02:12;;;;;;;6.47;3.10;;;;;;;13.50;84.67;99485.16;4209271;28;20238;-63
2023/10/07 04:04:42;;;;;;;9.57;3.60;;;;;;;13.44;84.62;99470.44;4206940;28;20231;-65
2023/10/07 04:07:10;;;;;;;7.83;3.27;;;;;;;13.56;83.92;99493.38;4210830;28;20282;-63
2023/10/07 04:09:37;;;;;;;11.23;3.60;;;;;;;13.54;84.67;99490.03;4214749;28;20228;-63
2023/10/07 04:12:06;;;;;;;7.87;3.00;;;;;;;13.52;85.54;99488.53;4217530;28;20322;-62
2023/10/07 04:14:35;;;;;;;10.27;3.47;;;;;;;13.45;85.62;99486.56;4210342;28;20294;-65
2023/10/07 04:17:11;;;;;;;7.03;3.30;;;;;;;13.44;86.09;99492.19;4209166;28;20310;-65
2023/10/07 04:19:40;;;;;;;6.53;2.97;;;;;;;13.44;86.01;99492.19;4214430;28;20290;-65
2023/10/07 04:22:08;;;;;;;9.53;3.23;;;;;;;13.45;85.95;99480.28;4207768;28;20236;-62
2023/10/07 04:24:38;;;;;;;11.83;3.37;;;;;;;13.52;85.45;99477.66;4208904;28;20228;-64
2023/10/07 04:27:06;;;;;;;11.87;3.50;;;;;;;13.52;85.45;99473.06;4211988;28;22439;-65
2023/10/07 04:29:33;;;;;;;7.03;3.20;;;;;;;13.54;85.74;99475.56;4219864;28;20312;-65
2023/10/07 04:32:12;;;;;;;8.40;3.00;;;;;;;13.52;86.26;99467.63;4213367;28;20548;-65
2023/10/07 04:34:51;;;;;;;7.37;3.00;;;;;;;13.44;87.40;99473.16;4210947;28;20298;-66
2023/10/07 04:37:18;;;;;;;12.43;3.37;;;;;;;13.35;88.12;99464.25;4216893;28;20294;-64
2023/10/07 04:42:22;;;;;;;9.93;3.30;;;;;;;13.33;89.51;99474.47;4212087;28;21434;-65
2023/10/07 04:50:07;;;;;;;10.87;4.00;;;;;;;13.11;92.76;99468.94;4212754;28;20239;-63
2023/10/07 04:52:40;;;;;;;8.67;4.23;;;;;;;13.11;93.95;99477.09;4215898;28;20244;-64
2023/10/07 04:55:15;;;;;;;11.93;3.73;;;;;;;12.95;95.44;99460.97;4224693;28;20270;-65
2023/10/07 04:57:56;;;;;;;7.57;3.93;;;;;;;12.93;96.11;99460.31;4221995;28;20235;-64
2023/10/07 05:03:14;;;;;;;9.87;3.70;;;;;;;13.00;96.15;99461.25;4216494;28;20228;-63
2023/10/07 05:05:45;;;;;;;9.77;3.90;;;;;;;12.84;97.78;99459.56;4217523;28;20240;-66
2023/10/07 05:08:16;;;;;;;11.47;4.07;;;;;;;12.82;98.68;99462.47;4216050;28;23500;-64
2023/10/07 05:10:52;;;;;;;11.87;4.50;;;;;;;12.92;98.23;99462.19;4216073;28;20300;-65
2023/10/07 05:13:21;;;;;;;12.03;4.53;;;;;;;12.90;98.68;99455.28;4209547;28;20240;-62
2023/10/07 05:15:47;;;;;;;10.70;4.27;;;;;;;12.89;98.87;99461.72;4214492;28;20337;-62
2023/10/07 05:18:16;;;;;;;8.57;4.10;;;;;;;12.91;99.24;99456.97;4216318;28;20232;-64
2023/10/07 05:20:46;;;;;;;9.83;4.07;;;;;;;12.95;98.51;99442.78;4217526;28;20247;-66
2023/10/07 05:23:17;;;;;;;10.50;4.50;;;;;;;12.97;98.33;99445.34;4211142;28;20320;-64
2023/10/07 05:25:50;;;;;;;11.20;4.60;;;;;;;12.98;98.94;99447.88;4214712;28;20236;-62
2023/10/07 05:28:21;;;;;;;9.87;4.40;;;;;;;13.03;98.76;99452.75;4216319;28;20295;-64
2023/10/07 05:30:50;;;;;;;10.53;4.40;;;;;;;13.06;98.82;99436.06;4208505;28;20379;-63
2023/10/07 05:33:24;;;;;;;10.03;4.53;;;;;;;13.10;99.05;99439.25;4203837;28;20312;-63
2023/10/07 05:36:15;;;;;;;12.93;4.50;;;;;;;13.09;99.00;99449.25;4213762;28;20227;-64
2023/10/07 05:38:44;;;;;;;10.63;4.53;;;;;;;13.16;98.30;99452.91;4220790;28;21765;-64
2023/10/07 05:41:12;;;;;;;12.87;4.90;;;;;;;13.20;97.97;99447.09;4214057;28;21391;-62
2023/10/07 05:43:43;;;;;;;9.33;4.03;;;;;;;13.23;97.88;99480.19;4233020;28;20371;-64
2023/10/07 05:46:13;;;;;;;11.60;4.33;;;;;;;13.38;96.57;99458.44;4255757;28;20637;-64
2023/10/07 05:48:40;;;;;;;9.37;3.87;;;;;;;13.42;96.12;99483.38;4202229;28;20240;-63
2023/10/07 05:51:08;;;;;;;12.00;4.47;;;;;;;13.50;95.78;99485.16;4202490;28;20418;-64
2023/10/07 05:53:39;;;;;;;9.10;3.63;;;;;;;13.60;94.66;99475.66;4217420;28;20243;-65
2023/10/07 05:56:07;;;;;;;9.97;3.53;;;;;;;13.75;93.41;99485.66;4233356;28;22109;-64
2023/10/07 05:58:35;;;;;;;10.50;3.70;;;;;;;13.79;93.16;99476.94;4225027;28;20433;-65
2023/10/07 06:01:05;;;;;;;15.63;3.20;;;;;;;13.87;92.54;99481.38;4210041;28;20325;-62
2023/10/07 06:03:36;;;;;;;8.23;4.20;;;;;;;13.95;92.19;99483.16;4221903;28;22627;-62
2023/10/07 06:06:04;;;;;;;10.50;3.90;;;;;;;14.07;91.00;99472.63;4211182;28;20504;-65
2023/10/07 06:08:34;;;;;;;9.93;3.70;;;;;;;14.09;90.97;99476.81;4212863;28;22041;-66
2023/10/07 06:11:01;;;;;;;8.60;3.37;;;;;;;14.12;90.68;99475.59;4208499;28;20517;-66
2023/10/07 06:13:33;;;;;;;14.67;3.87;;;;;;;14.14;90.84;99498.03;4215790;28;21590;-63
2023/10/07 06:16:04;;;;;;;9.20;3.50;;;;;;;14.20;90.06;99475.47;4219348;28;20239;-65
2023/10/07 06:18:34;;;;;;;11.73;4.10;;;;;;;14.30;89.73;99477.00;4215588;28;26557;-62
2023/10/07 06:24:04;;;;;;;9.10;3.80;;;;;;;14.36;89.43;99474.34;4227087;28;20243;-64
2023/10/07 06:26:31;;;;;;;7.80;3.30;;;;;;;14.36;89.63;99463.44;4216429;28;21880;-63
2023/10/07 06:29:05;;;;;;;11.57;3.70;;;;;;;14.45;89.00;99479.66;4230546;28;20243;-63
2023/10/07 06:31:32;;;;;;;8.90;3.53;;;;;;;14.49;88.83;99470.88;4216534;28;20305;-62
2023/10/07 06:34:00;;;;;;;12.00;4.27;;;;;;;14.49;88.97;99478.22;4233769;28;21160;-64
2023/10/07 06:36:31;;;;;;;9.47;4.00;;;;;;;14.45;88.99;99466.88;4232405;28;20244;-62
2023/10/07 06:39:07;;;;;;;10.40;3.60;;;;;;;14.51;88.60;99471.53;4233078;28;21591;-65
2023/10/07 06:41:35;;;;;;;8.97;3.50;;;;;;;14.60;88.17;99465.94;4253167;28;20236;-64
2023/10/07 06:44:03;;;;;;;8.37;3.83;;;;;;;14.74;87.41;99484.13;4214782;28;23703;-67
2023/10/07 06:46:40;;;;;;;7.70;3.37;;;;;;;14.79;87.32;99470.72;4230134;28;20248;-63
2023/10/07 06:49:18;;;;;;;9.37;3.33;;;;;;;14.79;87.32;99475.34;4213217;28;20306;-63
2023/10/07 06:51:51;;;;;;;9.33;3.53;;;;;;;14.81;87.22;99484.13;4214586;28;21785;-64
2023/10/07 06:54:18;;;;;;;11.63;3.40;;;;;;;14.78;87.46;99481.84;4217129;28;20240;-64
2023/10/07 06:56:45;;;;;;;5.90;3.30;;;;;;;14.82;87.40;99492.13;4209060;28;20873;-63
2023/10/07 06:59:13;;;;;;;10.47;3.23;;;;;;;14.84;87.29;99476.41;4201126;28;21919;-65
2023/10/07 07:04:11;;;;;;;6.17;3.00;;;;;;;14.84;87.24;99473.69;4212172;28;20228;-62
2023/10/07 07:06:45;;;;;;;7.50;3.27;;;;;;;14.87;87.49;99484.19;4215720;28;20239;-65
2023/10/07 07:12:12;;;;;;;6.70;3.27;;;;;;;15.01;86.83;99482.41;4217314;28;20231;-64
2023/10/07 07:14:53;;;;;;;6.17;3.30;;;;;;;15.04;87.30;99475.72;4209262;28;20305;-62
2023/10/07 07:17:35;;;;;;;8.00;3.67;;;;;;;14.95;87.70;99461.41;4217863;28;20298;-63
2023/10/07 07:22:58;;;;;;;10.47;3.30;;;;;;;15.02;87.80;99467.75;4224115;28;21911;-62
2023/10/07 07:27:58;;;;;;;7.43;3.80;;;;;;;14.88;88.73;99449.59;4211367;28;20295;-64
2023/10/07 07:30:35;;;;;;;9.53;3.50;;;;;;;14.97;88.36;99469.38;4210469;28;21121;-64
2023/10/07 07:33:15;;;;;;;10.83;4.03;;;;;;;15.07;87.94;99480.75;4230110;28;20611;-64
2023/10/07 07:35:43;;;;;;;9.43;3.37;;;;;;;15.16;87.82;99479.56;4218977;28;20236;-65
2023/10/07 07:41:06;;;;;;;7.43;3.97;;;;;;;15.08;88.33;99476.97;4242822;28;20689;-62
2023/10/07 07:43:34;;;;;;;9.60;3.57;;;;;;;15.09;88.23;99475.13;4210856;28;20282;-64
2023/10/07 07:46:54;;;;;;;8.43;3.50;;;;;;;15.10;88.23;99472.19;4211549;28;20247;-63
2023/10/07 07:49:06;;;;;;;8.20;3.50;;;;;;;15.08;88.49;99478.88;4218965;28;20411;-64
2023/10/07 07:51:37;;;;;;;8.03;3.77;;;;;;;15.11;87.93;99490.22;4234133;28;23640;-64
2023/10/07 07:54:06;;;;;;;8.87;3.60;;;;;;;15.12;88.63;99482.88;4215788;28;20245;-65
2023/10/07 07:56:37;;;;;;;10.07;3.73;;;;;;;15.09;88.82;99481.41;4210740;28;20233;-67
2023/10/07 07:59:13;;;;;;;10.37;4.13;;;;;;;15.26;87.95;99462.00;4207997;28;21733;-64
2023/10/07 08:01:51;;;;;;;9.03;3.83;;;;;;;15.42;86.90;99460.78;4206893;28;20236;-65
2023/10/07 08:04:19;;;;;;;9.23;3.03;;;;;;;15.55;86.68;99444.50;4211577;28;20231;-65
2023/10/07 08:06:49;;;;;;;6.70;3.67;;;;;;;15.69;85.73;99451.69;4205818;28;20287;-64
2023/10/07 08:09:19;;;;;;;10.60;3.60;;;;;;;15.89;84.35;99447.34;4202512;28;22212;-62
2023/10/07 08:11:47;;;;;;;9.07;3.30;;;;;;;16.03;83.94;99448.19;4210704;28;20347;-64
2023/10/07 08:14:14;;;;;;;9.47;3.40;;;;;;;16.11;83.81;99456.19;4192178;28;20239;-63
2023/10/07 08:16:50;;;;;;;11.00;3.43;;;;;;;16.28;83.06;99452.03;4207485;28;20262;-62
2023/10/07 08:19:20;;;;;;;10.80;3.20;;;;;;;16.26;82.71;99445.91;4213428;28;21200;-66
2023/10/07 08:21:51;;;;;;;10.93;3.50;;;;;;;16.28;82.89;99448.44;4211728;28;26271;-64
2023/10/07 08:24:20;;;;;;;12.07;3.40;;;;;;;16.07;84.06;99461.22;4215566;28;20243;-64
2023/10/07 08:26:59;;;;;;;8.83;3.23;;;;;;;16.08;84.26;99457.47;4206986;28;20279;-63
2023/10/07 08:29:32;;;;;;;11.67;4.80;;;;;;;15.99;84.78;99467.75;4199206;28;20304;-63
2023/10/07 08:32:15;;;;;;;10.40;3.67;;;;;;;15.93;85.26;99465.84;4246281;28;20345;-68
2023/10/07 08:34:47;;;;;;;11.63;3.63;;;;;;;15.80;85.98;99479.41;4219274;28;20244;-65
2023/10/07 08:37:16;;;;;;;8.50;3.60;;;;;;;15.75;86.07;99476.47;4226976;28;21020;-64
2023/10/07 08:39:46;;;;;;;8.73;3.47;;;;;;;15.79;85.87;99477.72;4225217;28;20238;-66
2023/10/07 08:42:24;;;;;;;5.27;2.80;;;;;;;15.87;85.81;99465.81;4209876;28;20237;-64
2023/10/07 08:44:57;;;;;;;8.20;3.80;;;;;;;15.98;85.49;99471.50;4206525;28;20244;-63
2023/10/07 08:47:26;;;;;;;7.67;3.23;;;;;;;16.19;84.03;99474.28;4208874;28;22763;-63
2023/10/07 08:49:56;;;;;;;6.43;3.20;;;;;;;16.14;84.14;99480.38;4214015;28;20232;-65
2023/10/07 08:52:28;;;;;;;11.47;3.60;;;;;;;16.00;84.54;99482.22;4246065;28;21765;-66
2023/10/07 08:54:56;;;;;;;10.27;3.57;;;;;;;15.90;85.86;99489.97;4209841;28;20266;-63
2023/10/07 08:57:25;;;;;;;9.40;3.60;;;;;;;15.91;86.16;99489.75;4218704;28;20229;-66
2023/10/07 08:59:53;;;;;;;11.27;3.60;;;;;;;16.04;85.23;99477.19;4205452;28;22688;-64
2023/10/07 09:02:26;;;;;;;10.53;3.63;;;;;;;15.95;85.88;99492.94;4243762;28;25358;-64
2023/10/07 09:04:55;;;;;;;7.90;3.20;;;;;;;15.98;85.00;99507.00;4219453;28;20282;-63
2023/10/07 09:07:30;;;;;;;8.87;3.20;;;;;;;16.03;84.85;99511.00;4210301;28;20229;-63
2023/10/07 09:10:14;;;;;;;10.97;3.20;;;;;;;15.97;85.34;99496.28;4210037;28;23513;-65
2023/10/07 09:12:46;;;;;;;10.00;3.43;;;;;;;15.93;85.29;99500.47;4202761;28;20235;-66
2023/10/07 09:15:26;;;;;;;9.70;3.23;;;;;;;15.91;85.24;99492.50;4223862;28;26094;-64
2023/10/07 09:18:03;;;;;;;9.70;3.37;;;;;;;15.91;85.24;99495.22;4221364;28;22096;-65
2023/10/07 09:20:32;;;;;;;6.27;3.10;;;;;;;15.93;85.25;99500.47;4219645;28;22029;-63
2023/10/07 09:23:14;;;;;;;8.77;3.23;;;;;;;15.97;84.59;99497.13;4222782;28;20283;-64
2023/10/07 09:25:46;;;;;;;7.33;2.97;;;;;;;16.08;84.13;99503.03;4219854;28;20387;-67
2023/10/07 09:28:13;;;;;;;10.47;3.67;;;;;;;16.13;84.06;99495.06;4205646;28;21452;-63
2023/10/07 09:33:15;;;;;;;7.03;2.77;;;;;;;16.38;82.39;99502.66;4209851;28;20335;-66
2023/10/07 09:35:47;;;;;;;9.50;2.57;;;;;;;16.37;82.50;99509.19;4210442;28;20687;-62
2023/10/07 09:41:12;;;;;;;6.87;2.47;;;;;;;16.37;81.90;99515.47;4236186;28;20243;-64
2023/10/07 09:43:51;;;;;;;7.57;3.03;;;;;;;16.32;81.78;99513.34;4207954;28;20291;-65
2023/10/07 09:46:25;;;;;;;7.77;2.57;;;;;;;16.23;81.89;99516.50;4203203;28;20292;-63
2023/10/07 09:48:58;;;;;;;5.60;2.23;;;;;;;16.18;81.86;99521.75;4236409;28;20232;-64
2023/10/07 09:51:34;;;;;;;7.37;2.03;;;;;;;16.13;82.82;99517.72;4266238;28;20284;-65
2023/10/07 09:54:22;;;;;;;4.50;2.27;;;;;;;16.04;83.83;99540.84;4217767;28;20244;-64
2023/10/07 09:56:59;;;;;;;9.23;2.90;;;;;;;15.97;85.08;99548.16;4233712;28;20252;-63
2023/10/07 09:59:35;;;;;;;9.97;3.23;;;;;;;15.88;85.50;99554.84;4243023;28;20283;-65
2023/10/07 10:02:32;;;;;;;7.60;3.00;;;;;;;15.83;87.21;99550.00;4226055;28;21843;-65
2023/10/07 10:05:00;;;;;;;5.83;2.97;;;;;;;15.74;86.96;99538.38;4200702;28;20292;-65
2023/10/07 10:07:39;;;;;;;9.47;2.90;;;;;;;15.73;87.06;99553.06;4231893;28;20449;-63
2023/10/07 10:10:12;;;;;;;6.53;2.80;;;;;;;15.82;86.34;99553.72;4227883;28;20259;-62
2023/10/07 10:13:06;;;;;;;5.47;2.40;;;;;;;15.91;85.36;99541.63;4219944;28;20309;-63
2023/10/07 10:18:06;;;;;;;9.53;2.77;;;;;;;16.18;81.95;99530.75;4209592;28;20236;-65
2023/10/07 10:20:42;;;;;;;6.57;2.37;;;;;;;16.27;80.15;99539.63;4199662;28;20232;-65
2023/10/07 10:23:20;;;;;;;4.80;1.93;;;;;;;16.31;80.40;99532.69;4224045;28;22686;-63
2023/10/07 10:25:52;;;;;;;5.43;1.70;;;;;;;16.46;79.32;99527.06;4216002;28;20238;-63
2023/10/07 10:28:28;;;;;;;4.40;1.70;;;;;;;16.35;79.12;99520.31;4210957;28;20458;-66
2023/10/07 10:30:56;;;;;;;4.33;1.80;;;;;;;16.28;78.63;99522.16;4208342;28;20239;-65
2023/10/07 10:33:25;;;;;;;3.00;1.40;;;;;;;16.30;77.80;99525.53;4209574;28;20236;-66
2023/10/07 10:35:57;;;;;;;6.13;1.60;;;;;;;16.35;78.07;99524.91;4210063;28;20242;-64
2023/10/07 10:38:38;;;;;;;9.27;1.60;;;;;;;16.16;79.47;99527.44;4219131;28;20393;-64
2023/10/07 10:41:06;;;;;;;3.07;1.30;;;;;;;16.12;79.79;99528.88;4206437;28;21282;-63
2023/10/07 10:43:33;;;;;;;3.87;2.00;;;;;;;16.10;80.20;99523.63;4212941;28;20238;-61
2023/10/07 10:46:07;;;;;;;3.53;1.63;;;;;;;16.14;79.54;99526.78;4195349;28;20728;-63
2023/10/07 10:48:37;;;;;;;4.00;1.90;;;;;;;16.04;80.51;99529.06;4210954;28;21412;-63
2023/10/07 10:51:07;;;;;;;5.60;1.40;;;;;;;16.01;80.27;99524.84;4204832;28;20233;-64
2023/10/07 10:53:40;;;;;;;4.03;1.50;;;;;;;15.90;81.04;99536.38;4215074;28;21808;-64
2023/10/07 10:56:08;;;;;;;5.97;1.63;;;;;;;15.93;80.40;99531.34;4212292;28;20515;-64
2023/10/07 10:58:39;;;;;;;3.83;1.60;;;;;;;15.96;80.72;99524.63;4209325;28;22189;-65
2023/10/07 11:01:06;;;;;;;5.53;1.43;;;;;;;15.94;81.05;99534.91;4198779;28;20856;-65
2023/10/07 11:03:32;;;;;;;5.07;1.77;;;;;;;15.93;80.56;99542.28;4217123;28;21515;-64
2023/10/07 11:06:07;;;;;;;3.93;1.77;;;;;;;15.98;80.49;99539.75;4207389;28;20554;-63
2023/10/07 11:08:34;;;;;;;6.10;1.60;;;;;;;15.89;80.39;99559.25;4208484;28;20241;-64
2023/10/07 11:11:01;;;;;;;4.03;1.57;;;;;;;15.93;80.49;99555.06;4207449;28;20235;-64
2023/10/07 11:13:34;;;;;;;8.77;1.90;;;;;;;15.83;80.73;99564.47;4206299;28;21511;-63
2023/10/07 11:16:10;;;;;;;5.33;1.27;;;;;;;15.86;80.78;99537.81;4208112;28;20243;-63
2023/10/07 11:18:43;;;;;;;4.47;1.37;;;;;;;15.85;80.96;99553.38;4198901;28;20634;-63
2023/10/07 11:21:14;;;;;;;6.57;1.30;;;;;;;15.78;81.21;99555.19;4214646;28;20844;-63
2023/10/07 11:23:46;;;;;;;6.87;1.37;;;;;;;15.95;80.32;99555.69;4211912;28;20294;-63
2023/10/07 11:26:12;;;;;;;2.93;1.30;;;;;;;15.85;81.40;99547.91;4216366;28;22061;-65
2023/10/07 11:28:41;;;;;;;2.73;1.13;;;;;;;15.90;81.00;99550.03;4217314;28;20232;-63
2023/10/07 11:31:07;;;;;;;4.83;1.90;;;;;;;15.81;80.97;99539.25;4213659;28;20299;-65
2023/10/07 11:33:35;;;;;;;9.20;1.30;;;;;;;15.84;81.05;99547.03;4213926;28;20234;-66
2023/10/07 11:36:03;;;;;;;4.30;1.50;;;;;;;15.93;80.57;99545.00;4209437;28;20239;-65
2023/10/07 11:38:30;;;;;;;7.40;1.30;;;;;;;15.86;80.92;99546.00;4222168;28;20287;-63
2023/10/07 11:40:59;;;;;;;4.37;1.13;;;;;;;15.92;80.95;99543.31;4210300;28;20315;-63
2023/10/07 11:43:27;;;;;;;2.57;1.33;;;;;;;15.86;81.40;99549.59;4213061;28;20243;-63
2023/10/07 11:45:54;;;;;;;4.13;1.57;;;;;;;15.90;81.47;99558.22;4228800;28;20326;-66
2023/10/07 11:48:21;;;;;;;6.77;1.63;;;;;;;16.03;81.47;99552.78;4211590;28;20456;-64
2023/10/07 11:50:48;;;;;;;3.60;1.30;;;;;;;16.07;80.89;99542.31;4207905;28;20280;-64
2023/10/07 11:53:15;;;;;;;6.20;1.50;;;;;;;16.04;81.37;99548.16;4205971;28;20236;-64
2023/10/07 11:55:42;;;;;;;3.60;1.70;;;;;;;16.05;80.56;99544.38;4214359;28;20318;-63
2023/10/07 11:58:09;;;;;;;5.57;1.03;;;;;;;15.99;80.84;99535.97;4203110;28;20236;-63
2023/10/07 12:00:36;;;;;;;3.40;1.13;;;;;;;16.09;80.51;99543.78;4211266;28;20235;-67
2023/10/07 12:03:07;;;;;;;3.53;1.00;;;;;;;16.09;80.19;99543.78;4219569;28;20247;-66
2023/10/07 12:05:39;;;;;;;4.17;1.10;;;;;;;16.05;80.06;99558.03;4218519;28;22693;-62
2023/10/07 12:08:08;;;;;;;8.53;1.40;;;;;;;15.92;80.23;99558.81;4205353;28;20291;-64
2023/10/07 12:10:36;;;;;;;3.80;1.20;;;;;;;15.87;80.57;99548.53;4234700;28;20239;-64
2023/10/07 12:13:11;;;;;;;3.93;1.27;;;;;;;15.79;80.62;99563.16;4219709;28;20237;-63
2023/10/07 12:15:44;;;;;;;4.47;1.37;;;;;;;15.82;80.67;99551.00;4216466;28;21754;-63
2023/10/07 12:18:30;;;;;;;4.00;1.40;;;;;;;15.67;80.67;99560.16;4221041;28;22140;-63
2023/10/07 12:21:00;;;;;;;9.37;1.53;;;;;;;15.65;80.26;99564.97;4219893;28;20263;-66
2023/10/07 12:23:30;;;;;;;4.37;1.37;;;;;;;15.69;79.83;99562.69;4228063;28;20256;-64
2023/10/07 12:25:57;;;;;;;7.03;1.70;;;;;;;15.56;80.31;99570.81;4231799;28;21629;-63
2023/10/07 12:28:24;;;;;;;3.37;1.30;;;;;;;15.64;79.98;99574.19;4239281;28;20651;-65
2023/10/07 12:30:52;;;;;;;6.77;1.70;;;;;;;15.58;80.52;99580.47;4237137;28;26325;-64
2023/10/07 12:33:18;;;;;;;3.80;1.40;;;;;;;15.59;80.27;99581.34;4260846;28;21117;-64
2023/10/07 12:36:09;;;;;;;5.63;1.60;;;;;;;15.61;80.39;99579.22;4229783;28;21129;-63
2023/10/07 12:38:37;;;;;;;6.50;1.67;;;;;;;15.73;79.87;99583.09;4223867;28;20429;-63
2023/10/07 12:41:07;;;;;;;5.60;1.47;;;;;;;15.83;78.96;99580.84;4213087;28;20241;-65
2023/10/07 12:43:34;;;;;;;6.70;1.73;;;;;;;15.98;78.67;99575.25;4214028;28;21242;-64
2023/10/07 12:46:01;;;;;;;8.07;1.50;;;;;;;16.10;78.25;99578.22;4215077;28;21483;-63
2023/10/07 12:48:29;;;;;;;3.83;1.43;;;;;;;16.18;77.87;99577.19;4207633;28;21227;-66
2023/10/07 12:50:55;;;;;;;4.20;1.20;;;;;;;16.08;77.91;99580.31;4217426;28;20266;-65